sensor_id;sensor_type;location;lat;lon;timestamp;P1;durP1;ratioP1;P2;durP2;ratioP2
64313;SDS011;50650;48.180;11.524;2023-07-22T00:01:19;5.38;;;1.98;;
64313;SDS011;50650;48.180;11.524;2023-07-22T00:03:52;3.25;;;1.67;;
64313;SDS011;50650;48.180;11.524;2023-07-22T00:06:18;5.40;;;2.00;;
64313;SDS011;50650;48.180;11.524;2023-07-22T00:08:45;6.63;;;2.17;;
64313;SDS011;50650;48.180;11.524;2023-07-22T00:11:20;6.20;;;1.88;;
64313;SDS011;50650;48.180;11.524;2023-07-22T00:13:46;5.25;;;1.95;;
64313;SDS011;50650;48.180;11.524;2023-07-22T00:16:13;4.63;;;2.00;;
64313;SDS011;50650;48.180;11.524;2023-07-22T00:18:39;5.32;;;2.03;;
64313;SDS011;50650;48.180;11.524;2023-07-22T00:21:06;4.78;;;1.90;;
64313;SDS011;50650;48.180;11.524;2023-07-22T00:23:34;5.00;;;1.80;;
64313;SDS011;50650;48.180;11.524;2023-07-22T00:26:01;5.35;;;1.92;;
64313;SDS011;50650;48.180;11.524;2023-07-22T00:28:30;4.57;;;2.13;;
64313;SDS011;50650;48.180;11.524;2023-07-22T00:30:57;3.03;;;2.15;;
64313;SDS011;50650;48.180;11.524;2023-07-22T00:33:23;7.15;;;1.85;;
64313;SDS011;50650;48.180;11.524;2023-07-22T00:35:50;2.60;;;2.05;;
64313;SDS011;50650;48.180;11.524;2023-07-22T00:38:16;7.68;;;2.55;;
64313;SDS011;50650;48.180;11.524;2023-07-22T00:40:44;3.85;;;2.30;;
64313;SDS011;50650;48.180;11.524;2023-07-22T00:43:10;5.05;;;2.30;;
64313;SDS011;50650;48.180;11.524;2023-07-22T00:45:41;5.85;;;2.30;;
64313;SDS011;50650;48.180;11.524;2023-07-22T00:48:08;3.63;;;2.17;;
64313;SDS011;50650;48.180;11.524;2023-07-22T00:50:36;4.60;;;2.20;;
64313;SDS011;50650;48.180;11.524;2023-07-22T00:53:02;4.30;;;2.20;;
64313;SDS011;50650;48.180;11.524;2023-07-22T00:55:29;4.18;;;2.42;;
64313;SDS011;50650;48.180;11.524;2023-07-22T00:57:55;7.90;;;2.53;;
64313;SDS011;50650;48.180;11.524;2023-07-22T01:00:22;5.93;;;2.22;;
64313;SDS011;50650;48.180;11.524;2023-07-22T01:02:49;5.47;;;2.20;;
64313;SDS011;50650;48.180;11.524;2023-07-22T01:05:22;5.32;;;3.10;;
64313;SDS011;50650;48.180;11.524;2023-07-22T01:07:50;6.57;;;2.55;;
64313;SDS011;50650;48.180;11.524;2023-07-22T01:10:18;3.33;;;2.10;;
64313;SDS011;50650;48.180;11.524;2023-07-22T01:12:48;5.85;;;2.50;;
64313;SDS011;50650;48.180;11.524;2023-07-22T01:15:14;4.07;;;2.45;;
64313;SDS011;50650;48.180;11.524;2023-07-22T01:17:41;4.80;;;2.40;;
64313;SDS011;50650;48.180;11.524;2023-07-22T01:20:11;3.50;;;2.47;;
64313;SDS011;50650;48.180;11.524;2023-07-22T01:22:38;3.30;;;2.10;;
64313;SDS011;50650;48.180;11.524;2023-07-22T01:25:07;5.03;;;2.10;;
64313;SDS011;50650;48.180;11.524;2023-07-22T01:27:34;5.30;;;2.35;;
64313;SDS011;50650;48.180;11.524;2023-07-22T01:30:04;7.57;;;2.30;;
64313;SDS011;50650;48.180;11.524;2023-07-22T01:32:34;3.30;;;2.35;;
64313;SDS011;50650;48.180;11.524;2023-07-22T01:35:04;5.32;;;2.53;;
64313;SDS011;50650;48.180;11.524;2023-07-22T01:37:32;4.88;;;2.90;;
64313;SDS011;50650;48.180;11.524;2023-07-22T01:39:59;4.32;;;2.70;;
64313;SDS011;50650;48.180;11.524;2023-07-22T01:42:27;4.78;;;2.60;;
64313;SDS011;50650;48.180;11.524;2023-07-22T01:44:53;3.13;;;2.15;;
64313;SDS011;50650;48.180;11.524;2023-07-22T01:47:20;3.03;;;2.20;;
64313;SDS011;50650;48.180;11.524;2023-07-22T01:49:46;4.20;;;2.58;;
64313;SDS011;50650;48.180;11.524;2023-07-22T01:52:13;3.97;;;2.55;;
64313;SDS011;50650;48.180;11.524;2023-07-22T01:54:39;3.78;;;2.28;;
64313;SDS011;50650;48.180;11.524;2023-07-22T01:57:08;5.07;;;2.40;;
64313;SDS011;50650;48.180;11.524;2023-07-22T01:59:36;8.15;;;2.30;;
64313;SDS011;50650;48.180;11.524;2023-07-22T02:02:03;3.40;;;2.22;;
64313;SDS011;50650;48.180;11.524;2023-07-22T02:04:29;8.52;;;2.35;;
64313;SDS011;50650;48.180;11.524;2023-07-22T02:06:56;6.68;;;2.50;;
64313;SDS011;50650;48.180;11.524;2023-07-22T02:09:28;6.32;;;2.63;;
64313;SDS011;50650;48.180;11.524;2023-07-22T02:11:58;3.85;;;2.33;;
64313;SDS011;50650;48.180;11.524;2023-07-22T02:14:26;6.07;;;2.83;;
64313;SDS011;50650;48.180;11.524;2023-07-22T02:16:57;3.38;;;2.20;;
64313;SDS011;50650;48.180;11.524;2023-07-22T02:19:24;3.47;;;2.28;;
64313;SDS011;50650;48.180;11.524;2023-07-22T02:21:53;3.67;;;2.50;;
64313;SDS011;50650;48.180;11.524;2023-07-22T02:24:22;6.05;;;2.20;;
64313;SDS011;50650;48.180;11.524;2023-07-22T02:26:49;3.28;;;2.28;;
64313;SDS011;50650;48.180;11.524;2023-07-22T02:29:16;4.75;;;2.33;;
64313;SDS011;50650;48.180;11.524;2023-07-22T02:31:42;7.22;;;2.53;;
64313;SDS011;50650;48.180;11.524;2023-07-22T02:34:10;3.47;;;2.50;;
64313;SDS011;50650;48.180;11.524;2023-07-22T02:36:39;5.47;;;2.60;;
64313;SDS011;50650;48.180;11.524;2023-07-22T02:39:06;8.10;;;2.80;;
64313;SDS011;50650;48.180;11.524;2023-07-22T02:41:37;3.65;;;2.38;;
64313;SDS011;50650;48.180;11.524;2023-07-22T02:44:06;3.72;;;2.38;;
64313;SDS011;50650;48.180;11.524;2023-07-22T02:46:33;6.03;;;2.83;;
64313;SDS011;50650;48.180;11.524;2023-07-22T02:48:59;3.80;;;2.35;;
64313;SDS011;50650;48.180;11.524;2023-07-22T02:51:29;3.20;;;2.33;;
64313;SDS011;50650;48.180;11.524;2023-07-22T02:53:56;4.65;;;2.58;;
64313;SDS011;50650;48.180;11.524;2023-07-22T02:56:28;3.05;;;2.15;;
64313;SDS011;50650;48.180;11.524;2023-07-22T02:58:55;5.50;;;2.33;;
64313;SDS011;50650;48.180;11.524;2023-07-22T03:01:21;4.07;;;2.60;;
64313;SDS011;50650;48.180;11.524;2023-07-22T03:03:49;4.70;;;2.70;;
64313;SDS011;50650;48.180;11.524;2023-07-22T03:06:16;4.90;;;2.40;;
64313;SDS011;50650;48.180;11.524;2023-07-22T03:08:44;4.30;;;2.60;;
64313;SDS011;50650;48.180;11.524;2023-07-22T03:11:10;4.10;;;2.72;;
64313;SDS011;50650;48.180;11.524;2023-07-22T03:13:37;3.13;;;2.30;;
64313;SDS011;50650;48.180;11.524;2023-07-22T03:16:03;7.85;;;2.35;;
64313;SDS011;50650;48.180;11.524;2023-07-22T03:18:30;7.22;;;2.40;;
64313;SDS011;50650;48.180;11.524;2023-07-22T03:20:56;3.38;;;2.42;;
64313;SDS011;50650;48.180;11.524;2023-07-22T03:23:23;5.85;;;2.95;;
64313;SDS011;50650;48.180;11.524;2023-07-22T03:25:53;5.20;;;2.70;;
64313;SDS011;50650;48.180;11.524;2023-07-22T03:28:19;5.40;;;2.70;;
64313;SDS011;50650;48.180;11.524;2023-07-22T03:30:52;4.05;;;2.33;;
64313;SDS011;50650;48.180;11.524;2023-07-22T03:33:18;4.63;;;2.80;;
64313;SDS011;50650;48.180;11.524;2023-07-22T03:35:45;5.10;;;2.35;;
64313;SDS011;50650;48.180;11.524;2023-07-22T03:38:11;4.15;;;2.58;;
64313;SDS011;50650;48.180;11.524;2023-07-22T03:40:38;2.33;;;2.13;;
64313;SDS011;50650;48.180;11.524;2023-07-22T03:43:06;3.65;;;2.78;;
64313;SDS011;50650;48.180;11.524;2023-07-22T03:45:32;4.45;;;2.30;;
64313;SDS011;50650;48.180;11.524;2023-07-22T03:48:01;4.57;;;2.45;;
64313;SDS011;50650;48.180;11.524;2023-07-22T03:50:28;5.07;;;2.55;;
64313;SDS011;50650;48.180;11.524;2023-07-22T03:52:55;3.85;;;2.70;;
64313;SDS011;50650;48.180;11.524;2023-07-22T03:55:21;4.72;;;2.50;;
64313;SDS011;50650;48.180;11.524;2023-07-22T03:57:51;4.95;;;2.53;;
64313;SDS011;50650;48.180;11.524;2023-07-22T04:00:19;6.68;;;2.67;;
64313;SDS011;50650;48.180;11.524;2023-07-22T04:02:46;4.03;;;2.80;;
64313;SDS011;50650;48.180;11.524;2023-07-22T04:05:15;6.15;;;2.80;;
64313;SDS011;50650;48.180;11.524;2023-07-22T04:07:42;2.72;;;2.33;;
64313;SDS011;50650;48.180;11.524;2023-07-22T04:10:10;5.07;;;2.55;;
64313;SDS011;50650;48.180;11.524;2023-07-22T04:12:36;3.65;;;2.83;;
64313;SDS011;50650;48.180;11.524;2023-07-22T04:15:03;5.00;;;2.47;;
64313;SDS011;50650;48.180;11.524;2023-07-22T04:17:31;5.00;;;2.50;;
64313;SDS011;50650;48.180;11.524;2023-07-22T04:20:07;3.92;;;2.90;;
64313;SDS011;50650;48.180;11.524;2023-07-22T04:22:35;3.90;;;2.60;;
64313;SDS011;50650;48.180;11.524;2023-07-22T04:25:05;3.25;;;2.53;;
64313;SDS011;50650;48.180;11.524;2023-07-22T04:27:32;5.05;;;2.85;;
64313;SDS011;50650;48.180;11.524;2023-07-22T04:29:59;6.88;;;2.75;;
64313;SDS011;50650;48.180;11.524;2023-07-22T04:32:26;4.85;;;2.83;;
64313;SDS011;50650;48.180;11.524;2023-07-22T04:34:54;4.43;;;2.80;;
64313;SDS011;50650;48.180;11.524;2023-07-22T04:37:20;4.85;;;2.67;;
64313;SDS011;50650;48.180;11.524;2023-07-22T04:39:48;4.80;;;2.70;;
64313;SDS011;50650;48.180;11.524;2023-07-22T04:42:15;6.63;;;2.85;;
64313;SDS011;50650;48.180;11.524;2023-07-22T04:44:41;3.28;;;2.30;;
64313;SDS011;50650;48.180;11.524;2023-07-22T04:47:09;5.25;;;2.83;;
64313;SDS011;50650;48.180;11.524;2023-07-22T04:49:35;4.18;;;2.58;;
64313;SDS011;50650;48.180;11.524;2023-07-22T04:52:06;7.90;;;2.60;;
64313;SDS011;50650;48.180;11.524;2023-07-22T04:54:33;4.78;;;2.60;;
64313;SDS011;50650;48.180;11.524;2023-07-22T04:56:59;3.42;;;2.58;;
64313;SDS011;50650;48.180;11.524;2023-07-22T04:59:31;5.18;;;2.55;;
64313;SDS011;50650;48.180;11.524;2023-07-22T05:01:58;4.95;;;2.63;;
64313;SDS011;50650;48.180;11.524;2023-07-22T05:04:24;5.47;;;2.30;;
64313;SDS011;50650;48.180;11.524;2023-07-22T05:06:51;3.78;;;2.33;;
64313;SDS011;50650;48.180;11.524;2023-07-22T05:09:19;4.65;;;2.45;;
64313;SDS011;50650;48.180;11.524;2023-07-22T05:11:45;4.57;;;2.33;;
64313;SDS011;50650;48.180;11.524;2023-07-22T05:14:11;8.02;;;2.53;;
64313;SDS011;50650;48.180;11.524;2023-07-22T05:16:38;4.15;;;2.03;;
64313;SDS011;50650;48.180;11.524;2023-07-22T05:19:04;4.03;;;2.20;;
64313;SDS011;50650;48.180;11.524;2023-07-22T05:21:35;2.72;;;2.03;;
64313;SDS011;50650;48.180;11.524;2023-07-22T05:24:02;3.53;;;2.88;;
64313;SDS011;50650;48.180;11.524;2023-07-22T05:26:33;4.32;;;2.35;;
64313;SDS011;50650;48.180;11.524;2023-07-22T05:28:59;4.47;;;2.10;;
64313;SDS011;50650;48.180;11.524;2023-07-22T05:31:26;3.30;;;2.28;;
64313;SDS011;50650;48.180;11.524;2023-07-22T05:33:58;6.32;;;2.15;;
64313;SDS011;50650;48.180;11.524;2023-07-22T05:36:24;3.80;;;2.30;;
64313;SDS011;50650;48.180;11.524;2023-07-22T05:38:57;4.07;;;2.20;;
64313;SDS011;50650;48.180;11.524;2023-07-22T05:41:23;3.83;;;2.08;;
64313;SDS011;50650;48.180;11.524;2023-07-22T05:43:51;5.72;;;1.98;;
64313;SDS011;50650;48.180;11.524;2023-07-22T05:46:17;2.15;;;1.77;;
64313;SDS011;50650;48.180;11.524;2023-07-22T05:48:44;4.38;;;2.10;;
64313;SDS011;50650;48.180;11.524;2023-07-22T05:51:10;5.05;;;1.98;;
64313;SDS011;50650;48.180;11.524;2023-07-22T05:53:36;3.25;;;1.80;;
64313;SDS011;50650;48.180;11.524;2023-07-22T05:56:03;3.40;;;1.88;;
64313;SDS011;50650;48.180;11.524;2023-07-22T05:58:36;3.92;;;1.85;;
64313;SDS011;50650;48.180;11.524;2023-07-22T06:01:04;5.40;;;2.10;;
64313;SDS011;50650;48.180;11.524;2023-07-22T06:03:30;4.45;;;2.05;;
64313;SDS011;50650;48.180;11.524;2023-07-22T06:05:57;2.55;;;1.73;;
64313;SDS011;50650;48.180;11.524;2023-07-22T06:08:23;2.33;;;1.63;;
64313;SDS011;50650;48.180;11.524;2023-07-22T06:10:50;3.35;;;1.90;;
64313;SDS011;50650;48.180;11.524;2023-07-22T06:13:17;2.45;;;1.77;;
64313;SDS011;50650;48.180;11.524;2023-07-22T06:15:43;2.60;;;1.55;;
64313;SDS011;50650;48.180;11.524;2023-07-22T06:18:11;5.55;;;2.13;;
64313;SDS011;50650;48.180;11.524;2023-07-22T06:20:38;5.35;;;2.03;;
64313;SDS011;50650;48.180;11.524;2023-07-22T06:23:04;4.78;;;1.90;;
64313;SDS011;50650;48.180;11.524;2023-07-22T06:25:31;2.95;;;1.50;;
64313;SDS011;50650;48.180;11.524;2023-07-22T06:28:00;3.15;;;1.80;;
64313;SDS011;50650;48.180;11.524;2023-07-22T06:30:29;4.80;;;1.50;;
64313;SDS011;50650;48.180;11.524;2023-07-22T06:32:55;3.17;;;1.73;;
64313;SDS011;50650;48.180;11.524;2023-07-22T06:35:23;1.98;;;1.50;;
64313;SDS011;50650;48.180;11.524;2023-07-22T06:37:49;7.25;;;1.80;;
64313;SDS011;50650;48.180;11.524;2023-07-22T06:40:16;2.92;;;1.58;;
64313;SDS011;50650;48.180;11.524;2023-07-22T06:42:45;6.40;;;1.70;;
64313;SDS011;50650;48.180;11.524;2023-07-22T06:45:11;4.80;;;1.58;;
64313;SDS011;50650;48.180;11.524;2023-07-22T06:47:38;2.17;;;1.20;;
64313;SDS011;50650;48.180;11.524;2023-07-22T06:50:04;3.53;;;1.40;;
64313;SDS011;50650;48.180;11.524;2023-07-22T06:52:33;1.77;;;1.50;;
64313;SDS011;50650;48.180;11.524;2023-07-22T06:54:59;5.68;;;1.40;;
64313;SDS011;50650;48.180;11.524;2023-07-22T06:57:26;2.88;;;1.60;;
64313;SDS011;50650;48.180;11.524;2023-07-22T06:59:53;2.10;;;1.40;;
64313;SDS011;50650;48.180;11.524;2023-07-22T07:02:19;10.10;;;1.70;;
64313;SDS011;50650;48.180;11.524;2023-07-22T07:04:46;3.17;;;1.30;;
64313;SDS011;50650;48.180;11.524;2023-07-22T07:07:13;3.30;;;1.40;;
64313;SDS011;50650;48.180;11.524;2023-07-22T07:09:43;2.42;;;1.33;;
64313;SDS011;50650;48.180;11.524;2023-07-22T07:12:10;2.45;;;1.30;;
64313;SDS011;50650;48.180;11.524;2023-07-22T07:14:36;5.50;;;1.45;;
64313;SDS011;50650;48.180;11.524;2023-07-22T07:17:09;1.73;;;1.30;;
64313;SDS011;50650;48.180;11.524;2023-07-22T07:19:35;2.65;;;1.30;;
64313;SDS011;50650;48.180;11.524;2023-07-22T07:22:02;2.28;;;1.20;;
64313;SDS011;50650;48.180;11.524;2023-07-22T07:24:28;4.00;;;1.40;;
64313;SDS011;50650;48.180;11.524;2023-07-22T07:26:56;7.60;;;1.55;;
64313;SDS011;50650;48.180;11.524;2023-07-22T07:29:22;3.40;;;1.30;;
64313;SDS011;50650;48.180;11.524;2023-07-22T07:31:49;1.58;;;1.15;;
64313;SDS011;50650;48.180;11.524;2023-07-22T07:34:15;4.70;;;0.88;;
64313;SDS011;50650;48.180;11.524;2023-07-22T07:36:41;2.30;;;1.13;;
64313;SDS011;50650;48.180;11.524;2023-07-22T07:39:15;3.63;;;1.15;;
64313;SDS011;50650;48.180;11.524;2023-07-22T07:41:48;1.85;;;1.25;;
64313;SDS011;50650;48.180;11.524;2023-07-22T07:44:18;4.65;;;1.35;;
64313;SDS011;50650;48.180;11.524;2023-07-22T07:46:44;3.95;;;1.20;;
64313;SDS011;50650;48.180;11.524;2023-07-22T07:49:11;1.77;;;1.30;;
64313;SDS011;50650;48.180;11.524;2023-07-22T07:51:37;2.05;;;1.15;;
64313;SDS011;50650;48.180;11.524;2023-07-22T07:54:09;4.32;;;1.30;;
64313;SDS011;50650;48.180;11.524;2023-07-22T07:56:36;2.72;;;1.20;;
64313;SDS011;50650;48.180;11.524;2023-07-22T07:59:03;5.82;;;1.40;;
64313;SDS011;50650;48.180;11.524;2023-07-22T08:01:34;3.25;;;1.10;;
64313;SDS011;50650;48.180;11.524;2023-07-22T08:04:02;3.80;;;1.30;;
64313;SDS011;50650;48.180;11.524;2023-07-22T08:06:31;2.55;;;1.40;;
64313;SDS011;50650;48.180;11.524;2023-07-22T08:08:59;1.48;;;1.00;;
64313;SDS011;50650;48.180;11.524;2023-07-22T08:11:25;4.72;;;1.42;;
64313;SDS011;50650;48.180;11.524;2023-07-22T08:13:55;2.38;;;1.20;;
64313;SDS011;50650;48.180;11.524;2023-07-22T08:16:21;2.63;;;1.38;;
64313;SDS011;50650;48.180;11.524;2023-07-22T08:18:51;3.03;;;1.20;;
64313;SDS011;50650;48.180;11.524;2023-07-22T08:21:17;2.30;;;1.17;;
64313;SDS011;50650;48.180;11.524;2023-07-22T08:23:45;5.72;;;1.40;;
64313;SDS011;50650;48.180;11.524;2023-07-22T08:26:12;3.75;;;1.55;;
64313;SDS011;50650;48.180;11.524;2023-07-22T08:28:46;2.67;;;1.38;;
64313;SDS011;50650;48.180;11.524;2023-07-22T08:31:15;2.40;;;1.35;;
64313;SDS011;50650;48.180;11.524;2023-07-22T08:33:42;3.47;;;1.42;;
64313;SDS011;50650;48.180;11.524;2023-07-22T08:36:09;3.78;;;1.50;;
64313;SDS011;50650;48.180;11.524;2023-07-22T08:38:36;3.10;;;1.10;;
64313;SDS011;50650;48.180;11.524;2023-07-22T08:41:02;2.15;;;1.15;;
64313;SDS011;50650;48.180;11.524;2023-07-22T08:43:29;2.28;;;1.20;;
64313;SDS011;50650;48.180;11.524;2023-07-22T08:45:55;2.85;;;1.40;;
64313;SDS011;50650;48.180;11.524;2023-07-22T08:48:26;1.50;;;1.20;;
64313;SDS011;50650;48.180;11.524;2023-07-22T08:50:53;2.65;;;1.13;;
64313;SDS011;50650;48.180;11.524;2023-07-22T08:53:23;3.25;;;1.17;;
64313;SDS011;50650;48.180;11.524;2023-07-22T08:55:50;1.95;;;1.27;;
64313;SDS011;50650;48.180;11.524;2023-07-22T08:58:17;2.60;;;1.00;;
64313;SDS011;50650;48.180;11.524;2023-07-22T09:00:43;1.73;;;1.20;;
64313;SDS011;50650;48.180;11.524;2023-07-22T09:03:10;2.70;;;1.10;;
64313;SDS011;50650;48.180;11.524;2023-07-22T09:05:37;7.60;;;1.40;;
64313;SDS011;50650;48.180;11.524;2023-07-22T09:08:07;3.90;;;1.55;;
64313;SDS011;50650;48.180;11.524;2023-07-22T09:10:41;2.25;;;1.20;;
64313;SDS011;50650;48.180;11.524;2023-07-22T09:13:08;2.08;;;1.40;;
64313;SDS011;50650;48.180;11.524;2023-07-22T09:15:35;1.60;;;1.23;;
64313;SDS011;50650;48.180;11.524;2023-07-22T09:18:04;6.93;;;2.58;;
64313;SDS011;50650;48.180;11.524;2023-07-22T09:20:31;9.68;;;3.55;;
64313;SDS011;50650;48.180;11.524;2023-07-22T09:22:58;9.13;;;2.83;;
64313;SDS011;50650;48.180;11.524;2023-07-22T09:25:26;10.93;;;2.75;;
64313;SDS011;50650;48.180;11.524;2023-07-22T09:27:55;7.10;;;2.58;;
64313;SDS011;50650;48.180;11.524;2023-07-22T09:30:25;20.33;;;4.95;;
64313;SDS011;50650;48.180;11.524;2023-07-22T09:32:52;8.75;;;2.53;;
64313;SDS011;50650;48.180;11.524;2023-07-22T09:35:20;5.60;;;1.40;;
64313;SDS011;50650;48.180;11.524;2023-07-22T09:37:47;2.08;;;1.08;;
64313;SDS011;50650;48.180;11.524;2023-07-22T09:40:14;5.25;;;2.05;;
64313;SDS011;50650;48.180;11.524;2023-07-22T09:42:47;2.13;;;1.17;;
64313;SDS011;50650;48.180;11.524;2023-07-22T09:45:19;1.52;;;1.10;;
64313;SDS011;50650;48.180;11.524;2023-07-22T09:50:16;1.50;;;1.02;;
64313;SDS011;50650;48.180;11.524;2023-07-22T09:52:47;1.80;;;1.13;;
64313;SDS011;50650;48.180;11.524;2023-07-22T09:55:14;1.80;;;0.90;;
64313;SDS011;50650;48.180;11.524;2023-07-22T09:57:43;2.65;;;1.08;;
64313;SDS011;50650;48.180;11.524;2023-07-22T10:00:10;3.50;;;1.27;;
64313;SDS011;50650;48.180;11.524;2023-07-22T10:02:41;7.60;;;1.10;;
64313;SDS011;50650;48.180;11.524;2023-07-22T10:05:11;2.13;;;1.00;;
64313;SDS011;50650;48.180;11.524;2023-07-22T10:07:39;1.25;;;0.90;;
64313;SDS011;50650;48.180;11.524;2023-07-22T10:10:07;1.50;;;0.98;;
64313;SDS011;50650;48.180;11.524;2023-07-22T10:12:34;3.95;;;1.00;;
64313;SDS011;50650;48.180;11.524;2023-07-22T10:15:02;2.33;;;1.30;;
64313;SDS011;50650;48.180;11.524;2023-07-22T10:17:28;1.90;;;1.15;;
64313;SDS011;50650;48.180;11.524;2023-07-22T10:19:57;2.65;;;1.27;;
64313;SDS011;50650;48.180;11.524;2023-07-22T10:22:24;1.55;;;0.93;;
64313;SDS011;50650;48.180;11.524;2023-07-22T10:24:50;2.47;;;1.17;;
64313;SDS011;50650;48.180;11.524;2023-07-22T10:27:18;2.33;;;1.38;;
64313;SDS011;50650;48.180;11.524;2023-07-22T10:29:47;2.25;;;1.30;;
64313;SDS011;50650;48.180;11.524;2023-07-22T10:32:20;1.80;;;1.00;;
64313;SDS011;50650;48.180;11.524;2023-07-22T10:34:46;4.90;;;1.05;;
64313;SDS011;50650;48.180;11.524;2023-07-22T10:37:18;3.25;;;1.13;;
64313;SDS011;50650;48.180;11.524;2023-07-22T10:39:49;3.63;;;1.27;;
64313;SDS011;50650;48.180;11.524;2023-07-22T10:42:24;4.97;;;1.40;;
64313;SDS011;50650;48.180;11.524;2023-07-22T10:44:59;2.70;;;1.20;;
64313;SDS011;50650;48.180;11.524;2023-07-22T10:47:32;2.80;;;1.50;;
64313;SDS011;50650;48.180;11.524;2023-07-22T10:50:07;2.58;;;1.40;;
64313;SDS011;50650;48.180;11.524;2023-07-22T10:52:43;2.42;;;1.15;;
64313;SDS011;50650;48.180;11.524;2023-07-22T10:55:14;2.05;;;1.40;;
64313;SDS011;50650;48.180;11.524;2023-07-22T10:57:47;2.55;;;1.30;;
64313;SDS011;50650;48.180;11.524;2023-07-22T11:00:20;35.35;;;5.68;;
64313;SDS011;50650;48.180;11.524;2023-07-22T11:05:47;3.28;;;1.10;;
64313;SDS011;50650;48.180;11.524;2023-07-22T11:11:10;5.05;;;1.35;;
64313;SDS011;50650;48.180;11.524;2023-07-22T11:13:37;5.65;;;2.45;;
64313;SDS011;50650;48.180;11.524;2023-07-22T11:16:09;5.93;;;2.63;;
64313;SDS011;50650;48.180;11.524;2023-07-22T11:18:37;1.92;;;1.60;;
64313;SDS011;50650;48.180;11.524;2023-07-22T11:21:07;8.45;;;2.75;;
64313;SDS011;50650;48.180;11.524;2023-07-22T11:23:34;4.25;;;1.58;;
64313;SDS011;50650;48.180;11.524;2023-07-22T11:26:03;4.00;;;1.75;;
64313;SDS011;50650;48.180;11.524;2023-07-22T11:28:33;3.47;;;2.15;;
64313;SDS011;50650;48.180;11.524;2023-07-22T11:31:00;4.35;;;1.60;;
64313;SDS011;50650;48.180;11.524;2023-07-22T11:33:37;4.63;;;1.50;;
64313;SDS011;50650;48.180;11.524;2023-07-22T11:36:10;3.72;;;1.45;;
64313;SDS011;50650;48.180;11.524;2023-07-22T11:38:36;4.72;;;2.08;;
64313;SDS011;50650;48.180;11.524;2023-07-22T11:41:04;2.55;;;1.33;;
64313;SDS011;50650;48.180;11.524;2023-07-22T11:43:34;2.63;;;1.52;;
64313;SDS011;50650;48.180;11.524;2023-07-22T11:46:04;4.78;;;1.92;;
64313;SDS011;50650;48.180;11.524;2023-07-22T11:48:31;1.52;;;1.00;;
64313;SDS011;50650;48.180;11.524;2023-07-22T11:50:58;2.80;;;1.50;;
64313;SDS011;50650;48.180;11.524;2023-07-22T11:53:27;2.17;;;1.30;;
64313;SDS011;50650;48.180;11.524;2023-07-22T11:55:54;2.22;;;1.30;;
64313;SDS011;50650;48.180;11.524;2023-07-22T11:58:25;5.03;;;1.70;;
64313;SDS011;50650;48.180;11.524;2023-07-22T12:01:02;2.22;;;1.10;;
64313;SDS011;50650;48.180;11.524;2023-07-22T12:03:30;7.35;;;1.38;;
64313;SDS011;50650;48.180;11.524;2023-07-22T12:06:00;5.38;;;1.25;;
64313;SDS011;50650;48.180;11.524;2023-07-22T12:08:33;1.92;;;1.42;;
64313;SDS011;50650;48.180;11.524;2023-07-22T12:11:07;2.92;;;1.35;;
64313;SDS011;50650;48.180;11.524;2023-07-22T12:13:38;3.35;;;1.88;;
64313;SDS011;50650;48.180;11.524;2023-07-22T12:16:05;3.38;;;1.50;;
64313;SDS011;50650;48.180;11.524;2023-07-22T12:18:41;2.47;;;1.20;;
64313;SDS011;50650;48.180;11.524;2023-07-22T12:21:07;1.67;;;1.35;;
64313;SDS011;50650;48.180;11.524;2023-07-22T12:23:35;2.08;;;1.40;;
64313;SDS011;50650;48.180;11.524;2023-07-22T12:26:02;2.05;;;1.20;;
64313;SDS011;50650;48.180;11.524;2023-07-22T12:28:29;3.85;;;1.60;;
64313;SDS011;50650;48.180;11.524;2023-07-22T12:30:57;1.85;;;1.30;;
64313;SDS011;50650;48.180;11.524;2023-07-22T12:33:23;2.17;;;1.20;;
64313;SDS011;50650;48.180;11.524;2023-07-22T12:35:50;4.90;;;1.40;;
64313;SDS011;50650;48.180;11.524;2023-07-22T12:38:16;6.55;;;1.33;;
64313;SDS011;50650;48.180;11.524;2023-07-22T12:40:43;5.72;;;1.23;;
64313;SDS011;50650;48.180;11.524;2023-07-22T12:43:09;2.08;;;1.30;;
64313;SDS011;50650;48.180;11.524;2023-07-22T12:45:39;3.15;;;1.50;;
64313;SDS011;50650;48.180;11.524;2023-07-22T12:48:06;2.65;;;1.40;;
64313;SDS011;50650;48.180;11.524;2023-07-22T12:50:34;3.15;;;1.40;;
64313;SDS011;50650;48.180;11.524;2023-07-22T12:53:00;1.60;;;1.00;;
64313;SDS011;50650;48.180;11.524;2023-07-22T12:55:28;6.18;;;1.30;;
64313;SDS011;50650;48.180;11.524;2023-07-22T12:57:54;1.85;;;1.40;;
64313;SDS011;50650;48.180;11.524;2023-07-22T13:00:21;1.70;;;1.10;;
64313;SDS011;50650;48.180;11.524;2023-07-22T13:02:47;3.42;;;1.40;;
64313;SDS011;50650;48.180;11.524;2023-07-22T13:05:15;1.77;;;1.40;;
64313;SDS011;50650;48.180;11.524;2023-07-22T13:07:45;2.33;;;1.50;;
64313;SDS011;50650;48.180;11.524;2023-07-22T13:10:12;1.95;;;1.25;;
64313;SDS011;50650;48.180;11.524;2023-07-22T13:12:41;3.13;;;1.27;;
64313;SDS011;50650;48.180;11.524;2023-07-22T13:15:08;2.05;;;1.10;;
64313;SDS011;50650;48.180;11.524;2023-07-22T13:17:35;3.25;;;1.27;;
64313;SDS011;50650;48.180;11.524;2023-07-22T13:20:03;4.25;;;1.45;;
64313;SDS011;50650;48.180;11.524;2023-07-22T13:22:33;2.85;;;1.38;;
64313;SDS011;50650;48.180;11.524;2023-07-22T13:25:06;2.50;;;1.38;;
64313;SDS011;50650;48.180;11.524;2023-07-22T13:27:34;2.30;;;1.42;;
64313;SDS011;50650;48.180;11.524;2023-07-22T13:30:00;2.03;;;1.55;;
64313;SDS011;50650;48.180;11.524;2023-07-22T13:32:27;2.03;;;1.38;;
64313;SDS011;50650;48.180;11.524;2023-07-22T13:34:53;3.55;;;1.20;;
64313;SDS011;50650;48.180;11.524;2023-07-22T13:37:19;4.15;;;1.38;;
64313;SDS011;50650;48.180;11.524;2023-07-22T13:39:50;3.95;;;1.95;;
64313;SDS011;50650;48.180;11.524;2023-07-22T13:42:18;2.55;;;1.30;;
64313;SDS011;50650;48.180;11.524;2023-07-22T13:44:44;2.58;;;1.60;;
64313;SDS011;50650;48.180;11.524;2023-07-22T13:47:10;1.95;;;1.10;;
64313;SDS011;50650;48.180;11.524;2023-07-22T13:49:37;3.58;;;1.38;;
64313;SDS011;50650;48.180;11.524;2023-07-22T13:52:03;4.32;;;1.30;;
64313;SDS011;50650;48.180;11.524;2023-07-22T13:54:33;1.73;;;1.30;;
64313;SDS011;50650;48.180;11.524;2023-07-22T13:57:00;2.53;;;1.60;;
64313;SDS011;50650;48.180;11.524;2023-07-22T13:59:27;1.95;;;1.48;;
64313;SDS011;50650;48.180;11.524;2023-07-22T14:01:53;2.50;;;1.30;;
64313;SDS011;50650;48.180;11.524;2023-07-22T14:04:26;3.00;;;1.20;;
64313;SDS011;50650;48.180;11.524;2023-07-22T14:06:52;2.63;;;1.30;;
64313;SDS011;50650;48.180;11.524;2023-07-22T14:09:19;2.03;;;1.20;;
64313;SDS011;50650;48.180;11.524;2023-07-22T14:11:45;3.30;;;1.50;;
64313;SDS011;50650;48.180;11.524;2023-07-22T14:14:13;3.03;;;1.70;;
64313;SDS011;50650;48.180;11.524;2023-07-22T14:16:39;1.52;;;1.30;;
64313;SDS011;50650;48.180;11.524;2023-07-22T14:19:06;2.97;;;1.30;;
64313;SDS011;50650;48.180;11.524;2023-07-22T14:21:36;1.67;;;1.30;;
64313;SDS011;50650;48.180;11.524;2023-07-22T14:24:10;2.72;;;1.65;;
64313;SDS011;50650;48.180;11.524;2023-07-22T14:26:39;2.60;;;1.67;;
64313;SDS011;50650;48.180;11.524;2023-07-22T14:29:09;4.03;;;1.40;;
64313;SDS011;50650;48.180;11.524;2023-07-22T14:31:39;3.25;;;1.50;;
64313;SDS011;50650;48.180;11.524;2023-07-22T14:34:05;3.22;;;1.52;;
64313;SDS011;50650;48.180;11.524;2023-07-22T14:36:32;4.03;;;1.58;;
64313;SDS011;50650;48.180;11.524;2023-07-22T14:38:58;1.65;;;1.48;;
64313;SDS011;50650;48.180;11.524;2023-07-22T14:41:27;2.88;;;1.80;;
64313;SDS011;50650;48.180;11.524;2023-07-22T14:43:55;2.35;;;1.75;;
64313;SDS011;50650;48.180;11.524;2023-07-22T14:46:22;3.85;;;1.60;;